Time;durP1;ratioP1;P1;durP2;ratioP2;P2;SDS_P1;SDS_P2;PMS_P1;PMS_P2;Temp;Humidity;BMP_temperature;BMP_pressure;BME280_temperature;BME280_humidity;BME280_pressure;Samples;Min_cycle;Max_cycle;Signal;HPM_P1;HPM_P2
2022/11/27 00:01:39;;;;;;;18.95;9.52;;;;;;;4.74;100.00;101238.97;6194205;28;20050;-79
2022/11/27 00:04:40;;;;;;;17.77;9.48;;;;;;;4.71;100.00;101240.75;6194043;28;20141;-78
2022/11/27 00:07:40;;;;;;;18.95;9.13;;;;;;;4.57;100.00;101239.28;6193991;28;20098;-78
2022/11/27 00:10:41;;;;;;;20.35;9.15;;;;;;;4.51;100.00;101238.50;6195349;28;20074;-78
2022/11/27 00:13:42;;;;;;;14.00;6.82;;;;;;;4.57;100.00;101241.84;6193982;28;20129;-78
2022/11/27 00:16:43;;;;;;;22.58;8.32;;;;;;;4.57;100.00;101238.41;6194115;28;20045;-79
2022/11/27 00:19:44;;;;;;;23.90;9.35;;;;;;;4.57;100.00;101239.28;6194084;28;20379;-78
2022/11/27 00:22:44;;;;;;;18.42;8.02;;;;;;;4.57;100.00;101234.09;6193956;28;20050;-79
2022/11/27 00:25:52;;;;;;;18.17;8.25;;;;;;;4.50;100.00;101236.81;6193756;28;20085;-79
2022/11/27 00:28:53;;;;;;;18.30;8.73;;;;;;;4.47;100.00;101237.72;6194875;28;20042;-79
2022/11/27 00:31:55;;;;;;;18.88;9.02;;;;;;;4.56;100.00;101237.56;6193761;28;20046;-79
2022/11/27 00:34:55;;;;;;;15.40;8.43;;;;;;;4.53;100.00;101237.63;6278653;28;20550;-79
2022/11/27 00:37:56;;;;;;;22.10;9.02;;;;;;;4.46;100.00;101250.66;6195142;28;20042;-79
2022/11/27 00:41:11;;;;;;;18.35;8.88;;;;;;;4.44;100.00;101251.53;6193469;28;20047;-79
2022/11/27 00:44:12;;;;;;;22.70;9.90;;;;;;;4.47;100.00;101255.81;6295583;28;20091;-79
2022/11/27 00:47:13;;;;;;;15.75;8.15;;;;;;;4.50;100.00;101253.16;6313436;27;20049;-79
2022/11/27 00:50:18;;;;;;;22.73;8.75;;;;;;;4.54;100.00;101243.63;6217791;28;20053;-79
2022/11/27 00:53:18;;;;;;;19.95;9.30;;;;;;;4.48;100.00;101248.91;6217763;28;20053;-79
2022/11/27 00:56:22;;;;;;;13.63;7.72;;;;;;;4.46;100.00;101258.41;6218815;28;20414;-79
2022/11/27 00:59:23;;;;;;;22.10;8.20;;;;;;;4.54;100.00;101254.81;6217616;28;20069;-79
2022/11/27 01:02:24;;;;;;;16.30;8.38;;;;;;;4.58;100.00;101258.22;6217175;28;20137;-79
2022/11/27 01:05:24;;;;;;;19.17;8.75;;;;;;;4.49;100.00;101251.47;6217862;28;20099;-79
2022/11/27 01:08:26;;;;;;;21.55;9.70;;;;;;;4.60;100.00;101246.13;6218460;28;20042;-79
2022/11/27 01:11:29;;;;;;;17.52;8.52;;;;;;;4.68;100.00;101249.41;6218530;28;20606;-79
2022/11/27 01:14:30;;;;;;;21.10;9.88;;;;;;;4.70;100.00;101254.56;6217106;28;20501;-79
2022/11/27 01:17:31;;;;;;;21.20;9.95;;;;;;;4.68;100.00;101249.41;6218465;28;20042;-79
2022/11/27 01:20:32;;;;;;;17.30;8.98;;;;;;;4.67;100.00;101245.13;6200788;28;20106;-79
2022/11/27 01:23:33;;;;;;;20.67;10.52;;;;;;;4.70;100.00;101250.25;6218245;28;20070;-79
2022/11/27 01:26:33;;;;;;;23.27;10.60;;;;;;;4.75;100.00;101251.00;6217146;28;20099;-79
2022/11/27 01:29:34;;;;;;;27.20;8.85;;;;;;;4.72;100.00;101245.91;6218508;28;20034;-79
2022/11/27 01:32:35;;;;;;;22.63;8.75;;;;;;;4.74;100.00;101251.91;6200739;28;20519;-79
2022/11/27 01:35:36;;;;;;;15.93;9.10;;;;;;;4.74;100.00;101253.63;6218135;28;20072;-79
2022/11/27 01:38:39;;;;;;;18.55;9.88;;;;;;;4.69;100.00;101247.69;6218144;28;20042;-78
2022/11/27 01:41:43;;;;;;;25.80;9.98;;;;;;;4.79;100.00;101262.16;6217090;28;20050;-79
2022/11/27 01:44:51;;;;;;;20.25;8.85;;;;;;;4.74;100.00;101249.31;6216706;28;20042;-79
2022/11/27 01:48:00;;;;;;;23.08;8.75;;;;;;;4.79;100.00;101246.63;6216841;28;20375;-79
2022/11/27 01:51:01;;;;;;;19.60;8.27;;;;;;;4.79;100.00;101234.56;6218339;28;20529;-79
2022/11/27 01:54:02;;;;;;;22.65;10.55;;;;;;;4.88;100.00;101248.19;6217819;28;20042;-79
2022/11/27 01:57:08;;;;;;;21.15;10.43;;;;;;;4.81;100.00;101240.56;6217953;28;20042;-79
2022/11/27 02:00:13;;;;;;;16.02;9.30;;;;;;;4.84;100.00;101252.59;6217733;28;20042;-79
2022/11/27 02:03:15;;;;;;;22.52;9.85;;;;;;;4.78;100.00;101248.38;6217704;28;20037;-79
2022/11/27 02:06:15;;;;;;;22.67;10.02;;;;;;;4.71;100.00;101243.34;6200168;28;20399;-79
2022/11/27 02:09:16;;;;;;;17.48;10.05;;;;;;;4.80;100.00;101238.88;6200262;28;20049;-79
2022/11/27 02:12:24;;;;;;;18.63;9.43;;;;;;;4.72;100.00;101234.72;6217652;28;20072;-79
2022/11/27 02:15:30;;;;;;;24.98;9.43;;;;;;;4.77;100.00;101246.66;6219391;28;20053;-79
2022/11/27 02:19:06;;;;;;;20.00;8.13;;;;;;;4.82;100.00;101247.44;6221850;28;20046;-74
2022/11/27 02:22:47;;;;;;;17.50;7.88;;;;;;;4.80;100.00;101244.03;6220437;28;20065;-74
2022/11/27 02:25:57;;;;;;;15.82;7.93;;;;;;;4.76;100.00;101232.03;6221435;28;20463;-74
2022/11/27 02:29:03;;;;;;;26.27;9.98;;;;;;;4.79;100.00;101244.91;6220466;28;20126;-74
2022/11/27 02:32:18;;;;;;;16.75;8.35;;;;;;;4.71;100.00;101235.56;6220430;28;20129;-74
2022/11/27 02:35:29;;;;;;;21.98;7.60;;;;;;;4.68;100.00;101246.84;6220120;28;20446;-75
2022/11/27 02:38:37;;;;;;;20.38;8.48;;;;;;;4.64;100.00;101240.84;6221712;28;20042;-74
2022/11/27 02:41:49;;;;;;;19.30;9.57;;;;;;;4.67;100.00;101242.53;6219995;28;20050;-74
2022/11/27 02:45:00;;;;;;;22.10;10.65;;;;;;;4.69;100.00;101242.50;6219874;28;20452;-74
2022/11/27 02:48:02;;;;;;;15.68;7.55;;;;;;;4.66;100.00;101247.75;6215345;28;20038;-74
2022/11/27 02:51:05;;;;;;;25.98;10.77;;;;;;;4.58;100.00;101243.56;6201737;28;20054;-74
2022/11/27 02:54:11;;;;;;;21.08;9.23;;;;;;;4.56;100.00;101234.97;6217694;28;20069;-74
2022/11/27 02:57:13;;;;;;;21.85;8.52;;;;;;;4.48;100.00;101242.00;6196291;28;20387;-74
2022/11/27 03:00:19;;;;;;;18.73;10.13;;;;;;;4.47;100.00;101242.00;6196170;28;20055;-74
2022/11/27 03:03:25;;;;;;;16.70;9.13;;;;;;;4.51;100.00;101246.25;6318008;27;20046;-74
2022/11/27 03:06:46;;;;;;;25.15;9.05;;;;;;;4.48;100.00;101241.16;6220914;28;20037;-76
2022/11/27 03:09:51;;;;;;;17.77;7.93;;;;;;;4.40;100.00;101242.13;6221537;28;20360;-75
2022/11/27 03:12:52;;;;;;;22.02;9.38;;;;;;;4.43;100.00;101241.25;6221555;28;20544;-74
2022/11/27 03:15:58;;;;;;;19.13;8.90;;;;;;;4.48;100.00;101241.16;6212686;28;20050;-74
2022/11/27 03:19:24;;;;;;;16.70;8.45;;;;;;;4.51;100.00;101233.34;6195998;28;20050;-74
2022/11/27 03:22:30;;;;;;;17.10;7.22;;;;;;;4.50;100.00;101242.81;6195858;28;20478;-75
2022/11/27 03:25:31;;;;;;;20.70;7.75;;;;;;;4.44;100.00;101240.34;6195903;28;20074;-75
2022/11/27 03:28:33;;;;;;;20.48;8.77;;;;;;;4.41;100.00;101249.00;6195196;28;20077;-75
2022/11/27 03:31:34;;;;;;;19.88;8.85;;;;;;;4.39;100.00;101257.66;6195793;28;20069;-75
2022/11/27 03:34:35;;;;;;;14.90;7.57;;;;;;;4.40;100.00;101259.38;6195751;28;20051;-75
2022/11/27 03:37:36;;;;;;;15.68;8.27;;;;;;;4.44;100.00;101241.19;6196930;28;20050;-75
2022/11/27 03:41:11;;;;;;;19.60;10.60;;;;;;;4.42;100.00;101242.09;6297898;28;20054;-75
2022/11/27 03:44:39;;;;;;;20.98;9.15;;;;;;;4.41;100.00;101243.84;6198513;28;20124;-74
2022/11/27 03:48:00;;;;;;;20.10;9.30;;;;;;;4.35;100.00;101238.78;6196482;28;20077;-75
2022/11/27 03:51:03;;;;;;;19.02;8.80;;;;;;;4.37;100.00;101251.69;6219296;28;20127;-78
2022/11/27 03:54:17;;;;;;;19.38;9.43;;;;;;;4.38;100.00;101243.88;6221061;28;20050;-78
2022/11/27 03:57:36;;;;;;;21.55;8.82;;;;;;;4.37;100.00;101246.50;6219895;28;20187;-78
2022/11/27 04:00:40;;;;;;;19.42;8.50;;;;;;;4.41;100.00;101243.00;6219474;28;20054;-78
2022/11/27 04:03:41;;;;;;;21.85;9.23;;;;;;;4.41;100.00;101243.00;6219720;28;20045;-78
2022/11/27 04:06:42;;;;;;;16.90;7.03;;;;;;;4.39;100.00;101240.44;6220856;28;20094;-78
2022/11/27 04:09:43;;;;;;;15.85;8.88;;;;;;;4.40;100.00;101249.88;6219399;28;20049;-78
2022/11/27 04:12:46;;;;;;;17.90;8.60;;;;;;;4.36;100.00;101247.38;6219762;28;20058;-78
2022/11/27 04:15:46;;;;;;;18.58;7.95;;;;;;;4.39;100.00;101249.91;6220788;28;20378;-78
2022/11/27 04:18:49;;;;;;;22.77;8.73;;;;;;;4.29;100.00;101243.19;6322477;27;20064;-79
2022/11/27 04:21:50;;;;;;;21.33;8.63;;;;;;;4.26;100.00;101248.38;6220534;28;20050;-78
2022/11/27 04:24:51;;;;;;;21.95;9.02;;;;;;;4.27;100.00;101250.13;6219322;28;20050;-78
2022/11/27 04:27:51;;;;;;;21.45;9.35;;;;;;;4.26;100.00;101256.16;6220265;28;20046;-78
2022/11/27 04:30:53;;;;;;;18.42;8.10;;;;;;;4.21;100.00;101253.63;6220395;28;20042;-78
2022/11/27 04:33:54;;;;;;;20.67;9.80;;;;;;;4.17;100.00;101244.22;6219041;28;20046;-78
2022/11/27 04:36:55;;;;;;;24.45;9.05;;;;;;;4.12;100.00;101233.97;6220196;28;20098;-78
2022/11/27 04:39:56;;;;;;;22.30;9.10;;;;;;;4.12;100.00;101248.59;6218289;28;20111;-78
2022/11/27 04:42:56;;;;;;;17.25;8.25;;;;;;;4.10;100.00;101253.81;6218817;28;20103;-78
2022/11/27 04:45:57;;;;;;;23.10;10.07;;;;;;;4.13;100.00;101256.34;6220205;28;20141;-78
2022/11/27 04:48:58;;;;;;;23.92;10.80;;;;;;;4.01;100.00;101257.34;6220009;28;20431;-78
2022/11/27 04:51:58;;;;;;;25.58;10.40;;;;;;;4.09;100.00;101256.41;6218110;28;20121;-78
2022/11/27 04:54:59;;;;;;;21.30;10.05;;;;;;;4.15;100.00;101257.16;6217973;28;20115;-78
2022/11/27 04:58:00;;;;;;;22.02;10.95;;;;;;;4.21;100.00;101249.31;6211459;28;20035;-78
2022/11/27 05:01:00;;;;;;;18.95;9.15;;;;;;;4.24;100.00;101254.47;6193902;28;20107;-78
2022/11/27 05:04:01;;;;;;;23.90;10.48;;;;;;;4.28;100.00;101254.38;6195338;28;20047;-78
2022/11/27 05:07:02;;;;;;;18.02;10.02;;;;;;;4.27;100.00;101258.72;6194217;28;20425;-78
2022/11/27 05:10:04;;;;;;;22.27;9.40;;;;;;;4.26;100.00;101246.66;6194176;28;20046;-78
2022/11/27 05:13:05;;;;;;;22.20;9.75;;;;;;;4.24;100.00;101254.47;6194556;28;20047;-78
2022/11/27 05:16:07;;;;;;;23.35;10.48;;;;;;;4.20;100.00;101263.13;6194014;28;20077;-78
2022/11/27 05:19:09;;;;;;;25.52;10.95;;;;;;;4.26;100.00;101257.00;6195193;28;20058;-78
2022/11/27 05:22:10;;;;;;;30.77;12.10;;;;;;;4.28;100.00;101254.38;6177630;28;20057;-78
2022/11/27 05:25:11;;;;;;;25.92;10.35;;;;;;;4.22;100.00;101243.28;6195454;28;20039;-78
2022/11/27 05:28:11;;;;;;;31.30;13.63;;;;;;;4.23;100.00;101242.41;6194133;28;20531;-78
2022/11/27 05:31:12;;;;;;;28.40;11.35;;;;;;;4.22;100.00;101237.25;6195032;28;20046;-74
2022/11/27 05:34:13;;;;;;;20.73;10.15;;;;;;;4.17;100.00;101241.66;6194784;28;20054;-74
2022/11/27 05:37:14;;;;;;;26.98;10.80;;;;;;;4.19;100.00;101252.81;6193460;28;20039;-74
2022/11/27 05:40:15;;;;;;;19.15;9.55;;;;;;;4.20;100.00;101249.34;6194719;28;20452;-74
2022/11/27 05:43:16;;;;;;;22.52;10.52;;;;;;;4.21;100.00;101266.56;6193296;28;20042;-74
2022/11/27 05:46:20;;;;;;;21.38;10.57;;;;;;;4.20;100.00;101259.66;6194570;28;20047;-74
2022/11/27 05:49:21;;;;;;;25.20;10.77;;;;;;;4.23;100.00;101263.06;6278733;28;20082;-74
2022/11/27 05:52:22;;;;;;;23.23;8.90;;;;;;;4.22;100.00;101258.78;6197763;28;20054;-74
2022/11/27 05:55:23;;;;;;;25.33;11.88;;;;;;;4.20;100.00;101263.13;6198567;28;20081;-74
2022/11/27 05:58:23;;;;;;;28.67;12.52;;;;;;;4.22;100.00;101263.09;6198517;28;20129;-74
2022/11/27 06:01:24;;;;;;;22.15;11.30;;;;;;;4.26;100.00;101267.31;6197375;28;20487;-74
2022/11/27 06:04:25;;;;;;;28.98;13.93;;;;;;;4.29;100.00;101275.03;6198541;28;20054;-73
2022/11/27 06:07:26;;;;;;;24.10;11.63;;;;;;;4.22;100.00;101276.00;6198434;28;20126;-74
2022/11/27 06:10:29;;;;;;;23.55;11.60;;;;;;;4.23;100.00;101269.97;6197213;28;20046;-74
2022/11/27 06:13:29;;;;;;;21.73;10.20;;;;;;;4.20;100.00;101273.47;6197247;28;20452;-73
2022/11/27 06:16:30;;;;;;;19.80;9.98;;;;;;;4.20;100.00;101270.00;6197103;28;20050;-73
2022/11/27 06:19:31;;;;;;;21.92;11.27;;;;;;;4.21;100.00;101269.13;6283018;28;20055;-74
2022/11/27 06:22:31;;;;;;;30.25;11.98;;;;;;;4.18;100.00;101267.47;6299281;28;20155;-73
2022/11/27 06:25:32;;;;;;;20.77;10.10;;;;;;;4.21;100.00;101271.72;6198160;28;20117;-74
2022/11/27 06:28:36;;;;;;;25.42;11.30;;;;;;;4.19;100.00;101265.72;6198151;28;20131;-74
2022/11/27 06:31:38;;;;;;;23.98;10.80;;;;;;;4.23;100.00;101272.56;6198192;28;20095;-73
2022/11/27 06:34:38;;;;;;;24.00;11.47;;;;;;;4.25;100.00;101263.06;6180635;28;20127;-73
2022/11/27 06:37:39;;;;;;;22.20;10.35;;;;;;;4.29;100.00;101271.63;6196677;28;20088;-73
2022/11/27 06:40:41;;;;;;;29.50;11.07;;;;;;;4.28;100.00;101256.97;6196683;28;20395;-74
2022/11/27 06:43:43;;;;;;;15.43;8.93;;;;;;;4.34;100.00;101268.06;6195969;28;20042;-74
2022/11/27 06:46:43;;;;;;;23.63;8.80;;;;;;;4.31;100.00;101265.53;6195793;28;20057;-74
2022/11/27 06:49:44;;;;;;;19.45;9.68;;;;;;;4.32;100.00;101266.38;6196279;28;20125;-75
2022/11/27 06:52:45;;;;;;;21.02;9.05;;;;;;;4.30;100.00;101268.13;6197702;28;20070;-75
2022/11/27 06:55:45;;;;;;;21.60;8.75;;;;;;;4.26;100.00;101264.75;6197597;28;20046;-75
2022/11/27 06:58:50;;;;;;;24.13;11.25;;;;;;;4.30;100.00;101268.13;6196324;28;20402;-74
2022/11/27 07:01:51;;;;;;;29.65;13.52;;;;;;;4.28;100.00;101264.72;6194828;28;20062;-74
2022/11/27 07:04:52;;;;;;;28.20;11.38;;;;;;;4.31;100.00;101280.19;6298664;28;20061;-74
2022/11/27 07:07:52;;;;;;;22.55;11.43;;;;;;;4.33;100.00;101276.72;6197365;28;20065;-73
2022/11/27 07:10:53;;;;;;;24.17;11.85;;;;;;;4.31;100.00;101270.72;6196177;28;20049;-73
2022/11/27 07:13:57;;;;;;;21.73;10.45;;;;;;;4.35;100.00;101267.19;6197323;28;20051;-74
2022/11/27 07:16:59;;;;;;;21.10;10.95;;;;;;;4.44;100.00;101269.63;6197173;28;20057;-74
2022/11/27 07:20:00;;;;;;;27.88;13.07;;;;;;;4.48;100.00;101269.59;6197044;28;20104;-74
2022/11/27 07:23:01;;;;;;;28.23;11.52;;;;;;;4.53;100.00;101280.69;6195873;28;20053;-74
2022/11/27 07:26:13;;;;;;;21.55;10.45;;;;;;;4.53;100.00;101280.69;6195568;28;20054;-73
2022/11/27 07:29:14;;;;;;;20.40;9.68;;;;;;;4.49;100.00;101284.19;6195745;28;20046;-73
2022/11/27 07:32:15;;;;;;;15.10;8.07;;;;;;;4.50;100.00;101279.00;6196694;28;20126;-73
2022/11/27 07:35:16;;;;;;;25.77;9.98;;;;;;;4.59;100.00;101285.75;6196829;28;20133;-73
2022/11/27 07:38:17;;;;;;;20.10;9.63;;;;;;;4.54;100.00;101280.66;6195602;28;20100;-73
2022/11/27 07:41:20;;;;;;;19.45;9.70;;;;;;;4.63;100.00;101287.41;6196560;28;20053;-74
2022/11/27 07:44:20;;;;;;;25.55;11.63;;;;;;;4.59;100.00;101278.00;6297517;28;20133;-74
2022/11/27 07:47:21;;;;;;;24.75;10.50;;;;;;;4.57;100.00;101279.75;6195440;28;20054;-73
2022/11/27 07:50:22;;;;;;;21.42;9.90;;;;;;;4.68;100.00;101272.69;6195056;28;20121;-74
2022/11/27 07:53:23;;;;;;;27.02;10.93;;;;;;;4.76;100.00;101268.25;6218455;28;20091;-73
2022/11/27 07:56:24;;;;;;;16.30;9.57;;;;;;;4.82;100.00;101257.78;6219467;28;20567;-73
2022/11/27 07:59:25;;;;;;;26.75;11.20;;;;;;;4.94;100.00;101268.78;6220123;28;20046;-74
2022/11/27 08:02:28;;;;;;;27.15;12.88;;;;;;;4.92;100.00;101265.38;6218945;28;20481;-74
2022/11/27 08:05:32;;;;;;;19.95;10.93;;;;;;;4.94;100.00;101261.91;6220885;28;20045;-78
2022/11/27 08:08:35;;;;;;;20.30;10.88;;;;;;;4.95;100.00;101262.75;6210059;28;20054;-78
2022/11/27 08:11:38;;;;;;;24.63;10.23;;;;;;;5.02;100.00;101264.31;6227053;28;20067;-78
2022/11/27 08:14:41;;;;;;;21.77;9.43;;;;;;;5.00;100.00;101276.41;6304136;28;20051;-78
2022/11/27 08:17:42;;;;;;;21.00;10.73;;;;;;;5.02;100.00;101275.53;6220821;28;20415;-79
2022/11/27 08:20:43;;;;;;;13.45;8.55;;;;;;;5.10;100.00;101277.13;6290657;28;20043;-78
2022/11/27 08:23:43;;;;;;;23.02;10.25;;;;;;;5.07;100.00;101274.59;6218815;28;20042;-78
2022/11/27 08:26:46;;;;;;;24.48;10.05;;;;;;;4.99;100.00;101277.31;6218259;28;20034;-79
2022/11/27 08:29:47;;;;;;;24.40;11.80;;;;;;;5.01;100.00;101279.00;6216585;28;20045;-78
2022/11/27 08:32:49;;;;;;;22.25;10.32;;;;;;;5.08;100.00;101279.72;6212487;28;20050;-79
2022/11/27 08:35:50;;;;;;;20.77;10.20;;;;;;;5.14;100.00;101279.59;6179485;28;20053;-79
2022/11/27 08:38:51;;;;;;;26.05;11.63;;;;;;;5.33;100.00;101287.88;6214919;28;20049;-79
2022/11/27 08:41:53;;;;;;;17.73;9.05;;;;;;;5.30;100.00;101295.69;6219259;28;20057;-79
2022/11/27 08:44:54;;;;;;;18.45;10.43;;;;;;;5.36;100.00;101286.97;6217819;28;20406;-79
2022/11/27 08:47:54;;;;;;;22.77;11.30;;;;;;;5.44;100.00;101285.94;6217876;28;20045;-79
2022/11/27 08:50:56;;;;;;;18.95;9.68;;;;;;;5.48;100.00;101289.31;6218937;28;20045;-79
2022/11/27 08:53:56;;;;;;;26.70;10.77;;;;;;;5.52;100.00;101274.56;6201367;28;20567;-79
2022/11/27 08:56:57;;;;;;;21.05;10.85;;;;;;;5.63;100.00;101275.19;6217627;28;20069;-79
2022/11/27 08:59:58;;;;;;;23.45;10.30;;;;;;;5.61;100.00;101272.63;6217371;28;20077;-79
2022/11/27 09:02:59;;;;;;;29.83;10.82;;;;;;;5.62;100.00;101281.25;6209902;28;20395;-79
2022/11/27 09:06:00;;;;;;;17.73;8.65;;;;;;;5.68;100.00;101273.34;6208702;28;20457;-79
2022/11/27 09:09:04;;;;;;;23.58;10.27;;;;;;;5.72;100.00;101272.41;6201551;28;20042;-79
2022/11/27 09:12:05;;;;;;;20.80;10.30;;;;;;;5.83;100.00;101267.00;6195440;28;20050;-79
2022/11/27 09:15:06;;;;;;;21.90;11.30;;;;;;;5.90;100.00;101271.16;6193035;28;20426;-77
2022/11/27 09:18:07;;;;;;;23.15;12.35;;;;;;;5.94;100.00;101264.19;6194098;28;20039;-77
2022/11/27 09:21:09;;;;;;;21.60;10.57;;;;;;;5.86;100.00;101265.19;6194125;28;20517;-77
2022/11/27 09:24:10;;;;;;;;;;;;;;;5.78;100.00;101266.25;6189044;28;20039;-78
2022/11/27 09:27:10;;;;;;;20.63;8.60;;;;;;;5.86;100.00;101261.75;6197422;28;20405;-77
2022/11/27 09:30:12;;;;;;;20.10;9.77;;;;;;;5.85;100.00;101268.69;6197075;28;20145;-78
2022/11/27 09:33:13;;;;;;;22.27;11.50;;;;;;;6.09;100.00;101268.19;6198364;28;20046;-77
2022/11/27 09:36:16;;;;;;;31.65;17.05;;;;;;;5.94;100.00;101271.94;6197262;28;20483;-78
2022/11/27 09:39:21;;;;;;;23.90;11.80;;;;;;;6.08;100.00;101269.94;6198201;28;20557;-77
2022/11/27 09:43:07;;;;;;;28.02;10.43;;;;;;;5.93;100.00;101263.34;6198373;28;20129;-78
2022/11/27 09:46:16;;;;;;;20.40;9.80;;;;;;;5.95;100.00;101266.78;6207656;28;20054;-78
2022/11/27 09:49:23;;;;;;;21.60;10.35;;;;;;;5.90;100.00;101265.13;6222733;28;20053;-78
2022/11/27 09:52:46;;;;;;;20.50;9.30;;;;;;;6.01;100.00;101269.22;6198039;28;20054;-78
2022/11/27 09:55:50;;;;;;;14.85;8.00;;;;;;;6.02;100.00;101270.06;6282673;28;20050;-78
2022/11/27 09:58:59;;;;;;;19.45;8.65;;;;;;;6.00;100.00;101272.69;6196770;28;20046;-78
2022/11/27 10:02:00;;;;;;;22.92;10.05;;;;;;;6.17;100.00;101267.09;6197639;28;20057;-76
2022/11/27 10:05:04;;;;;;;21.85;9.25;;;;;;;6.29;100.00;101265.97;6180438;28;20426;-77
2022/11/27 10:08:14;;;;;;;20.83;10.00;;;;;;;6.35;100.00;101260.66;6299448;28;20095;-77
2022/11/27 10:11:33;;;;;;;24.70;10.27;;;;;;;6.44;100.00;101252.66;6197692;28;20042;-76
2022/11/27 10:15:02;;;;;;;16.48;8.93;;;;;;;6.56;100.00;101254.06;6198134;28;20058;-76
2022/11/27 10:18:29;;;;;;;19.15;9.70;;;;;;;6.33;100.00;101254.66;6196534;28;20042;-76
2022/11/27 10:22:19;;;;;;;20.73;9.80;;;;;;;6.34;100.00;101251.19;6196279;28;20402;-76
2022/11/27 10:25:28;;;;;;;17.98;9.02;;;;;;;6.41;100.00;101247.53;6197134;28;20488;-76
2022/11/27 10:28:50;;;;;;;14.63;7.15;;;;;;;6.50;100.00;101246.44;6196337;28;20638;-76
2022/11/27 10:31:56;;;;;;;14.57;7.53;;;;;;;6.62;100.00;101243.53;6196315;28;20453;-76
2022/11/27 10:35:01;;;;;;;20.13;9.70;;;;;;;6.69;100.00;101239.03;6195914;28;20050;-76
2022/11/27 10:38:22;;;;;;;19.02;8.85;;;;;;;6.55;100.00;101243.75;6195900;28;20066;-76
2022/11/27 10:41:31;;;;;;;19.60;8.77;;;;;;;6.70;100.00;101234.72;6281520;28;20060;-76
2022/11/27 10:44:37;;;;;;;15.70;7.60;;;;;;;6.88;100.00;101223.88;6298206;28;20414;-76
2022/11/27 10:47:41;;;;;;;20.10;10.50;;;;;;;6.95;100.00;101219.34;6195711;28;20050;-77
2022/11/27 10:50:47;;;;;;;16.80;8.60;;;;;;;6.91;100.00;101222.94;6195745;28;20047;-77
2022/11/27 10:53:53;;;;;;;16.60;7.65;;;;;;;6.92;100.00;101224.59;6195710;28;20138;-76
2022/11/27 10:57:23;;;;;;;14.98;8.68;;;;;;;6.88;100.00;101229.06;6298196;28;20053;-76
2022/11/27 11:00:24;;;;;;;17.25;8.20;;;;;;;6.83;100.00;101218.78;6206317;28;20063;-77
2022/11/27 11:03:25;;;;;;;23.08;9.25;;;;;;;6.89;100.00;101222.97;6195575;28;20092;-76
2022/11/27 11:06:30;;;;;;;20.75;8.88;;;;;;;6.88;100.00;101225.59;6195492;28;20054;-76
2022/11/27 11:09:33;;;;;;;19.80;9.40;;;;;;;6.96;100.00;101215.84;6297771;28;20557;-77
2022/11/27 11:12:36;;;;;;;20.05;9.35;;;;;;;6.79;100.00;101216.31;6195281;28;20043;-77
2022/11/27 11:15:56;;;;;;;16.65;7.90;;;;;;;6.86;100.00;101216.13;6298120;28;20089;-77
2022/11/27 11:19:01;;;;;;;23.27;9.38;;;;;;;6.75;100.00;101204.31;6196903;28;20469;-77
2022/11/27 11:22:20;;;;;;;17.75;9.73;;;;;;;6.66;100.00;101200.22;6178839;28;20046;-77
2022/11/27 11:25:21;;;;;;;18.90;8.38;;;;;;;6.74;100.00;101198.28;6280650;28;20054;-77
2022/11/27 11:28:23;;;;;;;22.83;9.27;;;;;;;6.66;100.00;101198.47;6195025;28;20047;-78
2022/11/27 11:31:39;;;;;;;18.80;9.90;;;;;;;6.89;100.00;101198.75;6196369;28;20043;-77
2022/11/27 11:34:46;;;;;;;25.08;9.63;;;;;;;7.11;100.00;101192.09;6195047;28;20042;-77
2022/11/27 11:37:50;;;;;;;19.30;9.45;;;;;;;7.02;100.00;101203.59;6280415;28;20513;-77
2022/11/27 11:40:59;;;;;;;21.55;9.40;;;;;;;7.11;100.00;101199.88;6194775;28;20068;-78
2022/11/27 11:44:01;;;;;;;18.45;9.13;;;;;;;6.89;100.00;101185.78;6195715;28;20107;-77
2022/11/27 11:47:02;;;;;;;21.05;9.70;;;;;;;7.01;100.00;101199.28;6194208;28;20050;-77
2022/11/27 11:50:08;;;;;;;21.42;10.20;;;;;;;6.92;100.00;101194.34;6194702;28;20042;-78
2022/11/27 11:53:21;;;;;;;24.58;9.27;;;;;;;6.98;100.00;101198.50;6194593;28;20241;-77
2022/11/27 11:56:36;;;;;;;16.13;8.77;;;;;;;6.97;100.00;101189.03;6194513;28;20043;-77
2022/11/27 11:59:37;;;;;;;18.63;8.98;;;;;;;6.70;100.00;101199.25;6194582;28;20117;-77
2022/11/27 12:02:50;;;;;;;14.30;7.72;;;;;;;6.64;100.00;101194.25;6186706;28;20057;-77
2022/11/27 12:05:59;;;;;;;19.35;9.77;;;;;;;6.74;100.00;101184.47;6219870;28;20052;-75
2022/11/27 12:09:24;;;;;;;21.58;9.80;;;;;;;6.63;100.00;101184.75;6218499;28;20738;-74
2022/11/27 12:13:10;;;;;;;18.17;8.20;;;;;;;6.64;100.00;101186.47;6218403;28;20049;-74
2022/11/27 12:16:17;;;;;;;20.98;9.52;;;;;;;6.60;100.00;101185.69;6220771;28;20077;-74
2022/11/27 12:19:21;;;;;;;17.70;9.55;;;;;;;6.60;100.00;101179.66;6218297;28;20102;-74
2022/11/27 12:22:36;;;;;;;33.83;12.75;;;;;;;6.56;100.00;101178.03;6218669;28;20038;-75
2022/11/27 12:25:45;;;;;;;27.48;10.90;;;;;;;6.66;100.00;101174.28;6206986;28;20065;-75
2022/11/27 12:29:13;;;;;;;26.48;11.75;;;;;;;6.55;100.00;101169.41;6202412;28;20053;-74
2022/11/27 12:32:52;;;;;;;23.08;10.45;;;;;;;6.58;100.00;101168.47;6193623;28;20426;-74
2022/11/27 12:36:13;;;;;;;23.88;10.70;;;;;;;6.61;100.00;101168.38;6193518;28;20057;-74
2022/11/27 12:39:22;;;;;;;27.55;10.20;;;;;;;6.57;100.00;101162.44;6194860;28;20042;-74
2022/11/27 12:42:30;;;;;;;30.65;9.57;;;;;;;6.67;100.00;101152.63;6194652;28;20141;-74
2022/11/27 12:45:46;;;;;;;18.02;9.77;;;;;;;6.72;100.00;101157.72;6193776;28;20046;-74
2022/11/27 12:49:02;;;;;;;20.38;8.85;;;;;;;6.75;100.00;101158.47;6194751;28;20042;-74
2022/11/27 12:52:17;;;;;;;13.40;8.05;;;;;;;6.56;100.00;101152.94;6193303;28;20515;-74
2022/11/27 12:55:24;;;;;;;27.92;11.98;;;;;;;6.59;100.00;101162.38;6194626;28;20046;-74
2022/11/27 12:58:31;;;;;;;21.67;9.27;;;;;;;6.66;100.00;101158.72;6192984;28;20061;-74
2022/11/27 13:01:38;;;;;;;15.50;7.60;;;;;;;6.53;100.00;101160.81;6193531;28;20405;-74
2022/11/27 13:04:45;;;;;;;20.10;10.48;;;;;;;6.56;100.00;101152.94;6193075;28;20054;-74
2022/11/27 13:07:59;;;;;;;25.90;11.10;;;;;;;6.58;100.00;101155.50;6184219;28;20050;-74
2022/11/27 13:11:05;;;;;;;17.30;9.25;;;;;;;6.69;100.00;101153.44;6207917;28;20065;-74
2022/11/27 13:14:11;;;;;;;20.83;9.57;;;;;;;6.71;100.00;101154.25;6217145;28;20065;-74
2022/11/27 13:17:15;;;;;;;14.68;7.60;;;;;;;6.57;100.00;101159.84;6216839;28;20038;-74
2022/11/27 13:20:23;;;;;;;21.95;9.43;;;;;;;6.45;100.00;101165.34;6225715;28;20045;-74
2022/11/27 13:23:28;;;;;;;18.48;8.68;;;;;;;6.18;100.00;101159.97;6216672;28;20042;-74
2022/11/27 13:26:42;;;;;;;16.23;7.82;;;;;;;6.23;100.00;101162.44;6218531;28;20100;-74
2022/11/27 13:29:48;;;;;;;20.30;8.27;;;;;;;6.35;100.00;101140.56;6217192;28;20155;-74
2022/11/27 13:33:00;;;;;;;16.25;8.18;;;;;;;6.10;100.00;101155.88;6218395;28;20080;-73
2022/11/27 13:36:03;;;;;;;25.73;8.18;;;;;;;6.15;100.00;101154.84;6217049;28;20134;-73
2022/11/27 13:39:04;;;;;;;29.45;9.95;;;;;;;6.13;100.00;101146.28;6216950;28;20486;-74
2022/11/27 13:42:11;;;;;;;17.53;8.50;;;;;;;6.25;100.00;101155.47;6216711;28;20459;-73
2022/11/27 13:45:30;;;;;;;16.25;7.70;;;;;;;6.21;100.00;101154.69;6200628;28;20516;-73
2022/11/27 13:48:36;;;;;;;15.88;8.25;;;;;;;6.25;100.00;101161.50;6216930;28;20046;-73
2022/11/27 13:51:38;;;;;;;19.20;8.70;;;;;;;6.19;100.00;101159.06;6216683;28;20140;-73
2022/11/27 13:54:52;;;;;;;20.23;8.63;;;;;;;5.98;100.00;101157.88;6217904;28;20056;-74
2022/11/27 13:57:56;;;;;;;18.83;9.38;;;;;;;5.91;100.00;101163.19;6216719;28;20061;-77
2022/11/27 14:00:56;;;;;;;18.02;8.27;;;;;;;5.97;100.00;101151.00;6216563;28;20046;-77
2022/11/27 14:04:08;;;;;;;17.92;8.30;;;;;;;5.95;100.00;101151.91;6216458;28;20042;-77
2022/11/27 14:07:12;;;;;;;15.15;7.55;;;;;;;5.79;100.00;101154.00;6214064;28;20408;-74
2022/11/27 14:10:26;;;;;;;25.00;9.35;;;;;;;5.88;100.00;101150.34;6207374;28;20057;-74